Time;durP1;ratioP1;P1;durP2;ratioP2;P2;SDS_P1;SDS_P2;PMS_P1;PMS_P2;Temp;Humidity;BMP_temperature;BMP_pressure;BME280_temperature;BME280_humidity;BME280_pressure;Samples;Min_cycle;Max_cycle;Signal;HPM_P1;HPM_P2
2022/09/28 00:02:23;;;;;;;2.50;0.50;;;12.10;99.90;;;;;;7398715;19;20134;-86
2022/09/28 00:04:48;;;;;;;0.60;0.53;;;12.10;99.90;;;;;;7396773;19;20139;-86
2022/09/28 00:07:14;;;;;;;1.70;0.70;;;11.90;99.90;;;;;;7394510;19;20591;-85
2022/09/28 00:09:40;;;;;;;1.33;0.80;;;11.90;99.90;;;;;;7394144;19;20138;-86
2022/09/28 00:12:05;;;;;;;1.23;0.70;;;12.10;99.90;;;;;;7392909;19;20522;-84
2022/09/28 00:14:31;;;;;;;0.83;0.50;;;12.10;99.90;;;;;;7393791;19;20643;-86
2022/09/28 00:16:57;;;;;;;4.33;0.70;;;12.10;99.90;;;;;;7392871;19;20130;-84
2022/09/28 00:19:23;;;;;;;2.90;0.70;;;12.10;99.90;;;;;;7391012;19;20516;-86
2022/09/28 00:21:48;;;;;;;0.60;0.50;;;12.20;99.90;;;;;;7392731;19;20131;-86
2022/09/28 00:24:14;;;;;;;0.77;0.57;;;12.10;99.90;;;;;;7391375;19;20150;-86
2022/09/28 00:26:53;;;;;;;0.70;0.63;;;12.60;99.90;;;;;;7394063;19;20138;-85
2022/09/28 00:29:30;;;;;;;1.17;0.80;;;12.00;99.90;;;;;;7387560;19;20142;-86
2022/09/28 00:32:02;;;;;;;2.57;0.60;;;11.90;99.90;;;;;;7391045;19;20149;-88
2022/09/28 00:34:31;;;;;;;1.03;0.50;;;12.10;99.90;;;;;;7391911;19;20154;-85
2022/09/28 00:36:58;;;;;;;0.70;0.50;;;12.10;99.90;;;;;;7392523;19;20210;-85
2022/09/28 00:39:25;;;;;;;0.93;0.60;;;12.10;99.90;;;;;;7392417;19;20136;-86
2022/09/28 00:41:52;;;;;;;1.00;0.60;;;12.10;99.90;;;;;;7392063;19;20170;-87
2022/09/28 00:44:41;;;;;;;0.70;0.70;;;12.20;99.90;;;;;;7390975;19;20169;-85
2022/09/28 00:47:25;;;;;;;1.37;0.80;;;12.20;99.90;;;;;;7390433;19;20134;-86
2022/09/28 00:49:55;;;;;;;1.67;0.70;;;12.20;99.90;;;;;;7391553;19;20620;-85
2022/09/28 00:52:30;;;;;;;2.57;1.07;;;12.10;99.90;;;;;;7387978;19;20139;-88
2022/09/28 00:55:00;;;;;;;0.50;0.40;;;12.00;99.90;;;;;;7392199;19;20161;-85
2022/09/28 00:57:27;;;;;;;1.07;0.63;;;11.80;99.90;;;;;;7388083;19;20162;-87
2022/09/28 00:59:54;;;;;;;3.07;0.73;;;12.10;99.90;;;;;;7390647;19;20150;-86
2022/09/28 01:02:20;;;;;;;1.20;1.00;;;12.10;99.90;;;;;;7393096;19;20172;-81
2022/09/28 01:04:47;;;;;;;1.43;0.53;;;12.40;99.90;;;;;;7391427;19;20146;-79
2022/09/28 01:07:15;;;;;;;2.53;0.87;;;12.20;99.90;;;;;;7389831;19;20221;-80
2022/09/28 01:09:42;;;;;;;2.03;0.60;;;12.40;99.90;;;;;;7392255;19;20556;-80
2022/09/28 01:12:08;;;;;;;0.67;0.60;;;12.20;99.90;;;;;;7390794;19;20209;-80
2022/09/28 01:14:34;;;;;;;0.50;0.50;;;12.20;99.90;;;;;;7392078;19;20154;-80
2022/09/28 01:17:10;;;;;;;0.83;0.63;;;12.20;99.90;;;;;;7391734;19;20817;-80
2022/09/28 01:20:04;;;;;;;2.17;0.70;;;12.20;99.90;;;;;;7390646;19;20146;-80
2022/09/28 01:22:53;;;;;;;0.80;0.60;;;12.20;99.90;;;;;;7391503;19;20135;-79
2022/09/28 01:25:38;;;;;;;1.37;0.80;;;12.20;99.90;;;;;;7391741;19;20143;-80
2022/09/28 01:28:10;;;;;;;2.07;0.50;;;12.20;99.90;;;;;;7391138;19;20655;-80
2022/09/28 01:30:44;;;;;;;1.90;0.70;;;12.00;99.90;;;;;;7390974;19;20141;-80
2022/09/28 01:33:19;;;;;;;1.10;0.63;;;12.00;99.90;;;;;;7389386;19;20150;-79
2022/09/28 01:36:10;;;;;;;1.57;0.63;;;12.10;99.90;;;;;;7389590;19;20173;-79
2022/09/28 01:38:48;;;;;;;1.07;0.63;;;12.00;99.90;;;;;;7387567;19;20157;-79
2022/09/28 01:41:16;;;;;;;2.63;0.60;;;12.10;99.90;;;;;;7391045;19;20475;-79
2022/09/28 01:43:48;;;;;;;1.73;0.60;;;12.00;99.90;;;;;;7389320;19;20165;-80
2022/09/28 01:46:27;;;;;;;1.50;0.60;;;12.10;99.90;;;;;;7390263;19;20149;-80
2022/09/28 01:48:57;;;;;;;2.13;0.60;;;12.10;99.90;;;;;;7390744;19;20599;-79
2022/09/28 01:51:42;;;;;;;2.10;0.70;;;12.30;99.90;;;;;;7390108;19;20134;-80
2022/09/28 01:54:13;;;;;;;0.63;0.50;;;12.30;99.90;;;;;;7389350;19;20592;-79
2022/09/28 01:56:54;;;;;;;3.07;0.70;;;12.40;99.90;;;;;;7390007;19;20161;-80
2022/09/28 01:59:26;;;;;;;3.20;0.80;;;12.30;99.90;;;;;;7391271;19;20138;-79
2022/09/28 02:02:05;;;;;;;2.33;0.67;;;12.30;99.90;;;;;;7392068;19;20131;-79
2022/09/28 02:04:35;;;;;;;2.73;0.77;;;12.20;99.90;;;;;;7390308;19;20185;-79
2022/09/28 02:07:06;;;;;;;3.97;0.80;;;12.30;99.90;;;;;;7391753;19;20210;-79
2022/09/28 02:09:38;;;;;;;0.57;0.50;;;12.20;99.90;;;;;;7390061;19;20158;-79
2022/09/28 02:12:33;;;;;;;2.23;0.83;;;12.30;99.90;;;;;;7398984;19;20131;-79
2022/09/28 02:15:10;;;;;;;1.10;0.70;;;12.30;99.90;;;;;;7399610;19;20796;-80
2022/09/28 02:17:36;;;;;;;3.90;0.70;;;12.40;99.90;;;;;;7395689;19;20152;-80
2022/09/28 02:20:03;;;;;;;2.83;0.80;;;12.30;99.90;;;;;;7398237;19;20182;-85
2022/09/28 02:22:50;;;;;;;2.23;0.73;;;12.30;99.90;;;;;;7397256;19;20142;-86
2022/09/28 02:25:27;;;;;;;3.47;0.87;;;12.30;99.90;;;;;;7395524;19;20611;-86
2022/09/28 02:28:05;;;;;;;2.20;0.90;;;12.30;99.90;;;;;;7398129;19;20138;-85
2022/09/28 02:30:35;;;;;;;4.17;0.80;;;12.40;99.90;;;;;;7395803;19;20154;-86
2022/09/28 02:33:12;;;;;;;4.00;0.90;;;12.50;99.90;;;;;;7397601;19;20145;-86
2022/09/28 02:35:40;;;;;;;1.60;0.70;;;12.20;99.90;;;;;;7396181;19;20139;-86
2022/09/28 02:38:06;;;;;;;2.20;0.70;;;12.10;99.90;;;;;;7393899;19;20154;-84
2022/09/28 02:40:34;;;;;;;3.23;0.67;;;12.00;99.90;;;;;;7396190;19;20142;-82
2022/09/28 02:43:36;;;;;;;1.20;0.70;;;12.10;99.90;;;;;;7394391;19;20178;-82
2022/09/28 02:46:20;;;;;;;1.80;0.80;;;12.20;99.90;;;;;;7395839;19;20217;-84
2022/09/28 02:49:32;;;;;;;3.87;0.80;;;12.30;99.90;;;;;;7389837;19;20127;-86
2022/09/28 02:52:42;;;;;;;1.90;0.63;;;12.40;99.90;;;;;;7393995;19;20134;-84
2022/09/28 02:55:21;;;;;;;2.23;0.77;;;12.30;99.90;;;;;;7393323;19;20633;-84
2022/09/28 02:58:08;;;;;;;1.33;0.60;;;12.40;99.90;;;;;;7395935;19;20135;-78
2022/09/28 03:00:54;;;;;;;2.93;0.73;;;12.40;99.90;;;;;;7396284;19;20142;-78
2022/09/28 03:03:30;;;;;;;1.50;0.70;;;12.50;99.90;;;;;;7396177;19;20134;-78
2022/09/28 03:06:02;;;;;;;2.30;0.73;;;12.50;99.90;;;;;;7395064;19;20130;-78
2022/09/28 03:08:53;;;;;;;1.30;0.77;;;12.50;99.90;;;;;;7394808;19;20127;-79
2022/09/28 03:11:26;;;;;;;3.27;0.60;;;12.50;99.90;;;;;;7394243;19;20210;-79
2022/09/28 03:13:53;;;;;;;2.07;0.67;;;12.40;99.90;;;;;;7396239;19;20468;-78
2022/09/28 03:16:19;;;;;;;2.30;0.47;;;12.40;99.90;;;;;;7396978;19;20138;-79
2022/09/28 03:18:45;;;;;;;2.97;0.90;;;12.70;99.90;;;;;;7391849;19;20131;-79
2022/09/28 03:21:12;;;;;;;1.50;0.57;;;12.40;99.90;;;;;;7393596;19;20157;-79
2022/09/28 03:23:39;;;;;;;2.00;0.80;;;12.50;99.90;;;;;;7394349;19;20209;-80
2022/09/28 03:26:07;;;;;;;1.33;0.73;;;12.50;99.90;;;;;;7393566;19;20150;-80
2022/09/28 03:28:35;;;;;;;3.40;0.90;;;12.50;99.90;;;;;;7391705;19;20691;-79
2022/09/28 03:31:01;;;;;;;1.00;0.63;;;12.30;99.90;;;;;;7397578;19;20142;-79
2022/09/28 03:33:26;;;;;;;2.03;1.00;;;12.50;99.90;;;;;;7395366;19;20143;-80
2022/09/28 03:35:52;;;;;;;4.17;0.87;;;12.30;99.90;;;;;;7398159;19;20127;-80
2022/09/28 03:38:18;;;;;;;1.97;0.70;;;12.30;99.90;;;;;;7393239;19;20139;-79
2022/09/28 03:40:56;;;;;;;1.47;0.57;;;12.40;99.90;;;;;;7396746;19;20145;-79
2022/09/28 03:43:22;;;;;;;1.23;0.57;;;12.40;99.90;;;;;;7395538;19;20164;-79
2022/09/28 03:46:05;;;;;;;1.77;0.90;;;12.30;99.90;;;;;;7397496;19;20151;-79
2022/09/28 03:48:35;;;;;;;3.90;0.93;;;12.40;99.90;;;;;;7394521;19;20175;-80
2022/09/28 03:51:03;;;;;;;2.60;0.80;;;12.30;99.90;;;;;;7392560;19;20153;-80
2022/09/28 03:53:29;;;;;;;3.77;0.97;;;12.40;99.90;;;;;;7394203;19;20139;-79
2022/09/28 03:56:05;;;;;;;3.03;1.00;;;12.40;99.90;;;;;;7393610;19;20167;-79
2022/09/28 03:58:31;;;;;;;1.70;0.40;;;12.50;99.90;;;;;;7396441;19;20134;-79
2022/09/28 04:01:02;;;;;;;3.50;0.80;;;12.50;99.90;;;;;;7394383;19;20209;-79
2022/09/28 04:03:28;;;;;;;3.33;1.10;;;12.60;99.90;;;;;;7395906;19;20478;-79
2022/09/28 04:05:53;;;;;;;1.23;0.60;;;12.60;99.90;;;;;;7396074;19;20202;-79
2022/09/28 04:08:19;;;;;;;3.20;0.87;;;12.60;99.90;;;;;;7394087;19;20138;-80
2022/09/28 04:10:46;;;;;;;0.67;0.60;;;12.40;99.90;;;;;;7397879;19;20137;-80
2022/09/28 04:13:11;;;;;;;1.27;0.70;;;12.50;99.90;;;;;;7395762;19;20797;-80
2022/09/28 04:15:37;;;;;;;0.93;0.63;;;12.20;99.90;;;;;;7395722;19;20134;-80
2022/09/28 04:18:08;;;;;;;2.83;0.77;;;12.10;99.90;;;;;;7396836;19;20134;-80
2022/09/28 04:20:33;;;;;;;1.27;0.53;;;12.10;99.90;;;;;;7395143;19;20146;-80
2022/09/28 04:22:59;;;;;;;1.43;0.60;;;12.60;99.90;;;;;;7396626;19;20138;-79
2022/09/28 04:25:25;;;;;;;0.50;0.50;;;12.20;99.90;;;;;;7393933;19;20185;-81
2022/09/28 04:30:35;;;;;;;0.73;0.57;;;12.20;99.90;;;;;;7396147;19;20138;-81
2022/09/28 04:33:01;;;;;;;1.87;0.50;;;12.20;99.90;;;;;;7395962;19;20738;-79
2022/09/28 04:35:27;;;;;;;0.90;0.50;;;12.30;99.90;;;;;;7394637;19;20154;-80
2022/09/28 04:37:52;;;;;;;1.93;0.50;;;12.30;99.90;;;;;;7394287;19;20153;-80
2022/09/28 04:40:18;;;;;;;1.87;0.50;;;12.50;99.90;;;;;;7393944;19;20162;-79
2022/09/28 04:42:44;;;;;;;0.60;0.50;;;12.40;99.90;;;;;;7394111;19;20236;-79
2022/09/28 04:45:10;;;;;;;1.63;0.60;;;12.40;99.90;;;;;;7395087;19;20584;-80
2022/09/28 04:47:35;;;;;;;1.03;0.50;;;12.30;99.90;;;;;;7395229;19;20146;-80
2022/09/28 04:50:01;;;;;;;0.93;0.50;;;12.40;99.90;;;;;;7394102;19;20161;-79
2022/09/28 04:52:27;;;;;;;1.17;0.67;;;12.30;99.90;;;;;;7396828;19;20146;-79
2022/09/28 04:54:53;;;;;;;1.30;0.40;;;12.20;99.90;;;;;;7395198;19;20130;-80
2022/09/28 04:57:18;;;;;;;0.87;0.57;;;12.30;99.90;;;;;;7395311;19;20134;-80
2022/09/28 04:59:44;;;;;;;0.87;0.50;;;12.70;99.90;;;;;;7394976;19;20139;-80
2022/09/28 05:02:13;;;;;;;1.53;0.50;;;12.30;99.90;;;;;;7396588;19;20166;-78
2022/09/28 05:04:39;;;;;;;2.87;0.57;;;12.20;99.90;;;;;;7394240;19;20142;-80
2022/09/28 05:07:05;;;;;;;1.27;0.60;;;12.30;99.90;;;;;;7394922;19;20158;-79
2022/09/28 05:09:31;;;;;;;1.30;0.60;;;12.00;99.90;;;;;;7393292;19;20130;-79
2022/09/28 05:11:56;;;;;;;1.70;0.90;;;12.10;99.90;;;;;;7395260;19;20154;-79
2022/09/28 05:14:23;;;;;;;1.33;0.80;;;11.90;99.90;;;;;;7393696;19;20529;-80
2022/09/28 05:16:49;;;;;;;2.73;0.77;;;11.90;99.90;;;;;;7395300;19;20152;-79
2022/09/28 05:19:15;;;;;;;1.50;0.57;;;12.00;99.90;;;;;;7393048;19;20170;-80
2022/09/28 05:21:45;;;;;;;0.83;0.30;;;12.10;99.90;;;;;;7394863;19;20143;-79
2022/09/28 05:24:11;;;;;;;0.90;0.50;;;12.20;99.90;;;;;;7392148;19;20142;-80
2022/09/28 05:26:37;;;;;;;1.10;0.80;;;11.90;99.90;;;;;;7393302;19;20144;-78
2022/09/28 05:29:03;;;;;;;3.30;0.80;;;11.70;99.90;;;;;;7392546;19;20602;-81
2022/09/28 05:31:29;;;;;;;0.90;0.63;;;11.90;99.90;;;;;;7395498;19;20153;-80
2022/09/28 05:33:54;;;;;;;0.57;0.50;;;11.90;99.90;;;;;;7391997;19;20143;-79
2022/09/28 05:36:21;;;;;;;1.90;0.50;;;12.00;99.90;;;;;;7392145;19;20151;-80
2022/09/28 05:38:46;;;;;;;0.47;0.47;;;11.90;99.90;;;;;;7388541;19;20173;-79
2022/09/28 05:41:12;;;;;;;1.50;0.60;;;12.00;99.90;;;;;;7390714;19;20146;-78
2022/09/28 05:43:38;;;;;;;1.43;0.50;;;12.00;99.90;;;;;;7390468;19;20246;-79
2022/09/28 05:46:05;;;;;;;0.93;0.50;;;12.10;99.90;;;;;;7397373;19;20160;-80
2022/09/28 05:48:30;;;;;;;0.93;0.50;;;12.10;99.90;;;;;;7399222;19;20237;-78
2022/09/28 05:50:59;;;;;;;2.90;0.60;;;12.00;99.90;;;;;;7399106;19;20143;-79
2022/09/28 05:53:26;;;;;;;1.60;0.60;;;11.90;99.90;;;;;;7399949;19;20138;-79
2022/09/28 05:55:52;;;;;;;1.00;0.50;;;12.00;99.90;;;;;;7398665;19;20135;-79
2022/09/28 05:58:17;;;;;;;4.37;0.80;;;12.00;99.90;;;;;;7395674;19;20664;-79
2022/09/28 06:00:43;;;;;;;4.67;1.03;;;12.00;99.90;;;;;;7398254;19;20211;-79
2022/09/28 06:03:13;;;;;;;1.13;0.80;;;12.10;99.90;;;;;;7399627;19;20134;-78
2022/09/28 06:05:39;;;;;;;4.00;1.47;;;12.00;99.90;;;;;;7400616;19;20571;-79
2022/09/28 06:08:07;;;;;;;1.07;0.70;;;12.10;99.90;;;;;;7396184;19;20584;-79
2022/09/28 06:10:33;;;;;;;0.90;0.70;;;12.00;99.90;;;;;;7398998;19;20150;-77
2022/09/28 06:13:00;;;;;;;1.63;0.80;;;12.00;99.90;;;;;;7396010;19;20147;-78
2022/09/28 06:15:30;;;;;;;2.27;0.90;;;12.00;99.90;;;;;;7398149;19;20139;-77
2022/09/28 06:18:00;;;;;;;1.73;0.80;;;12.00;99.90;;;;;;7392522;19;20175;-77
2022/09/28 06:20:28;;;;;;;1.53;0.57;;;12.00;99.90;;;;;;7393988;19;20139;-79
2022/09/28 06:22:54;;;;;;;3.73;0.77;;;12.00;99.90;;;;;;7396121;19;20139;-78
2022/09/28 06:25:21;;;;;;;3.47;0.60;;;12.00;99.90;;;;;;7394719;19;20638;-78
2022/09/28 06:28:06;;;;;;;2.37;0.80;;;12.00;99.90;;;;;;7394808;19;20161;-78
2022/09/28 06:30:36;;;;;;;0.70;0.67;;;12.00;99.90;;;;;;7392544;19;20495;-78
2022/09/28 06:33:02;;;;;;;2.43;0.67;;;12.20;99.90;;;;;;7397195;19;20933;-79
2022/09/28 06:35:29;;;;;;;3.17;0.90;;;12.20;99.90;;;;;;7396550;19;20142;-78
2022/09/28 06:37:57;;;;;;;0.60;0.60;;;12.20;99.90;;;;;;7392617;19;20869;-78
2022/09/28 06:40:23;;;;;;;2.13;0.83;;;12.00;99.90;;;;;;7395237;19;20147;-77
2022/09/28 06:42:59;;;;;;;1.67;0.90;;;12.20;99.90;;;;;;7395142;19;20270;-77
2022/09/28 06:45:27;;;;;;;3.13;1.07;;;12.20;99.90;;;;;;7396664;19;20246;-77
2022/09/28 06:47:57;;;;;;;2.23;0.80;;;12.30;99.90;;;;;;7394557;19;20143;-77
2022/09/28 06:50:25;;;;;;;1.10;0.60;;;12.30;99.90;;;;;;7394106;19;20524;-78
2022/09/28 06:52:52;;;;;;;3.03;1.07;;;12.20;99.90;;;;;;7397332;19;20596;-78
2022/09/28 06:55:19;;;;;;;2.43;0.70;;;12.10;99.90;;;;;;7394269;19;20169;-78
2022/09/28 06:57:45;;;;;;;1.27;0.90;;;12.30;99.90;;;;;;7395652;19;20142;-78
2022/09/28 07:00:11;;;;;;;2.70;0.90;;;12.30;99.90;;;;;;7393369;19;20138;-78
2022/09/28 07:02:37;;;;;;;1.90;1.00;;;12.30;99.90;;;;;;7398735;19;20141;-78
2022/09/28 07:05:05;;;;;;;2.77;0.70;;;12.00;99.90;;;;;;7397427;19;20140;-77
2022/09/28 07:07:30;;;;;;;1.60;1.03;;;12.10;99.90;;;;;;7396350;19;20491;-78
2022/09/28 07:09:56;;;;;;;5.57;2.27;;;12.20;99.90;;;;;;7396428;19;20134;-77
2022/09/28 07:12:24;;;;;;;2.40;1.13;;;12.20;99.90;;;;;;7396530;19;20143;-78
2022/09/28 07:14:55;;;;;;;1.73;1.00;;;11.80;99.90;;;;;;7396320;19;20667;-77
2022/09/28 07:17:21;;;;;;;2.33;1.20;;;12.00;99.90;;;;;;7395249;19;20152;-78
2022/09/28 07:19:51;;;;;;;5.00;1.50;;;12.00;99.90;;;;;;7395964;19;20135;-78
2022/09/28 07:22:19;;;;;;;3.53;1.20;;;12.20;99.90;;;;;;7397170;19;20139;-78
2022/09/28 07:24:45;;;;;;;2.30;1.17;;;12.40;99.90;;;;;;7397868;19;20147;-79
2022/09/28 07:27:11;;;;;;;2.70;1.40;;;12.40;99.90;;;;;;7400965;19;20194;-81
2022/09/28 07:29:38;;;;;;;2.40;1.20;;;12.40;99.90;;;;;;7406391;19;20647;-77
2022/09/28 07:32:05;;;;;;;3.90;1.20;;;12.50;99.90;;;;;;7398656;19;20508;-79
2022/09/28 07:34:38;;;;;;;4.47;1.37;;;12.40;99.90;;;;;;7399004;19;20851;-78
2022/09/28 07:37:05;;;;;;;2.17;1.23;;;12.50;99.90;;;;;;7398266;19;20205;-78
2022/09/28 07:41:10;;;;;;;1.87;1.37;;;12.50;99.90;;;;;;7393841;19;20135;-79
2022/09/28 07:42:17;;;;;;;3.77;1.90;;;12.50;99.90;;;;;;7392466;19;20142;-79
2022/09/28 07:44:42;;;;;;;4.77;2.40;;;12.60;99.90;;;;;;7393057;19;20465;-79
2022/09/28 07:47:08;;;;;;;2.90;1.63;;;12.70;99.90;;;;;;7392520;19;20139;-80
2022/09/28 07:49:34;;;;;;;3.43;1.67;;;12.70;99.90;;;;;;7393625;19;20827;-79
2022/09/28 07:52:00;;;;;;;10.80;6.17;;;12.50;99.90;;;;;;7393367;19;20146;-79
2022/09/28 07:54:26;;;;;;;5.13;2.50;;;12.40;99.90;;;;;;7393729;19;20496;-79
2022/09/28 07:56:52;;;;;;;5.83;3.30;;;12.50;99.90;;;;;;7392941;19;20148;-79
2022/09/28 07:59:19;;;;;;;6.93;1.53;;;12.50;99.90;;;;;;7393858;19;20142;-79
2022/09/28 08:01:48;;;;;;;3.90;1.57;;;12.50;99.90;;;;;;7392435;19;20626;-78
2022/09/28 08:04:14;;;;;;;4.80;1.87;;;12.70;99.90;;;;;;7393014;19;20145;-79
2022/09/28 08:06:40;;;;;;;3.83;1.73;;;12.70;99.90;;;;;;7396346;19;20178;-79
2022/09/28 08:09:05;;;;;;;5.43;1.73;;;12.90;99.90;;;;;;7393538;19;20464;-77
2022/09/28 08:11:31;;;;;;;3.70;1.60;;;12.90;99.90;;;;;;7392519;19;20127;-78
2022/09/28 08:13:59;;;;;;;3.27;1.50;;;13.00;99.90;;;;;;7391387;19;20143;-78
2022/09/28 08:16:26;;;;;;;2.17;1.37;;;12.90;99.90;;;;;;7392332;19;20139;-78
2022/09/28 08:18:51;;;;;;;2.67;1.13;;;12.90;99.90;;;;;;7390027;19;20146;-80
2022/09/28 08:24:01;;;;;;;4.73;2.57;;;12.80;99.90;;;;;;7392400;19;20792;-79
2022/09/28 08:26:28;;;;;;;3.63;1.30;;;12.90;99.90;;;;;;7393966;19;20141;-79
2022/09/28 08:28:53;;;;;;;3.07;1.20;;;12.70;99.90;;;;;;7391795;19;20617;-79
2022/09/28 08:31:19;;;;;;;1.70;1.03;;;12.80;99.90;;;;;;7393181;19;20492;-80
2022/09/28 08:33:45;;;;;;;2.45;0.93;;;12.90;99.90;;;;;;7392491;19;20587;-79
2022/09/28 08:36:11;;;;;;;2.03;1.23;;;12.90;99.90;;;;;;7393726;19;20146;-79
2022/09/28 08:38:36;;;;;;;2.17;1.10;;;12.70;99.90;;;;;;7390510;19;20149;-78
2022/09/28 08:41:14;;;;;;;2.23;1.00;;;12.80;99.90;;;;;;7392863;19;20143;-78
2022/09/28 08:43:49;;;;;;;3.03;2.13;;;13.10;99.90;;;;;;7393953;19;20145;-78
2022/09/28 08:46:18;;;;;;;2.77;1.57;;;13.10;99.90;;;;;;7390517;19;20150;-79
2022/09/28 08:48:53;;;;;;;5.67;3.73;;;13.00;99.90;;;;;;7393524;19;20138;-79
2022/09/28 08:51:40;;;;;;;1.77;1.43;;;13.20;99.90;;;;;;7391155;19;20138;-78
2022/09/28 08:54:33;;;;;;;7.40;2.63;;;13.20;99.90;;;;;;7395036;19;20138;-78
2022/09/28 08:57:12;;;;;;;3.17;1.20;;;13.30;99.90;;;;;;7393309;19;20149;-78
2022/09/28 08:59:51;;;;;;;1.83;1.10;;;13.30;99.90;;;;;;7391945;19;20135;-78
2022/09/28 09:02:28;;;;;;;1.57;1.13;;;13.30;99.90;;;;;;7397915;19;20131;-78
2022/09/28 09:04:55;;;;;;;2.10;1.30;;;13.20;99.90;;;;;;7393450;19;20158;-79
2022/09/28 09:07:43;;;;;;;2.47;1.03;;;13.30;99.90;;;;;;7393400;19;20131;-79
2022/09/28 09:10:35;;;;;;;4.20;1.47;;;13.20;99.90;;;;;;7393891;19;20122;-78
2022/09/28 09:13:34;;;;;;;7.73;4.47;;;13.20;99.90;;;;;;7393283;19;20131;-79
2022/09/28 09:16:23;;;;;;;3.37;1.60;;;13.10;99.90;;;;;;7393013;19;20142;-80
2022/09/28 09:19:03;;;;;;;3.30;1.10;;;13.10;99.90;;;;;;7388937;19;20154;-80
2022/09/28 09:21:56;;;;;;;2.70;1.60;;;13.20;99.90;;;;;;7400152;19;20232;-79
2022/09/28 09:24:28;;;;;;;2.80;1.17;;;13.20;99.90;;;;;;7398471;19;20146;-80
2022/09/28 09:27:10;;;;;;;2.88;1.38;;;13.30;99.90;;;;;;7400948;19;20126;-80
2022/09/28 09:29:57;;;;;;;2.30;1.40;;;13.40;99.90;;;;;;7398762;19;20154;-80
2022/09/28 09:32:31;;;;;;;3.47;1.50;;;13.60;99.90;;;;;;7399496;19;20233;-82
2022/09/28 09:35:29;;;;;;;2.20;1.43;;;13.70;99.90;;;;;;7401530;19;20157;-80
2022/09/28 09:38:10;;;;;;;1.10;0.90;;;13.50;99.90;;;;;;7398020;19;20157;-80
2022/09/28 09:41:01;;;;;;;2.53;1.35;;;13.70;99.90;;;;;;7400310;19;20157;-79
2022/09/28 09:43:29;;;;;;;3.30;1.40;;;13.70;99.90;;;;;;7401309;19;20130;-81
2022/09/28 09:46:09;;;;;;;2.67;1.40;;;13.80;99.90;;;;;;7406911;19;20133;-79
2022/09/28 09:49:07;;;;;;;1.13;1.00;;;13.80;99.90;;;;;;7401108;19;20127;-80
2022/09/28 09:51:40;;;;;;;2.17;1.38;;;13.60;99.90;;;;;;7398507;19;20679;-79
2022/09/28 09:54:22;;;;;;;3.67;1.30;;;13.60;99.90;;;;;;7401473;19;20127;-81
2022/09/28 09:56:58;;;;;;;2.13;1.45;;;13.70;99.90;;;;;;7398460;19;20634;-79
2022/09/28 09:59:32;;;;;;;2.83;1.20;;;13.90;99.90;;;;;;7399431;19;20244;-80
2022/09/28 10:02:28;;;;;;;3.05;1.20;;;13.80;99.90;;;;;;7401975;19;20603;-80
2022/09/28 10:05:22;;;;;;;2.42;1.17;;;13.80;99.90;;;;;;7398058;19;20161;-81
2022/09/28 10:08:03;;;;;;;3.35;1.13;;;13.40;99.90;;;;;;7397039;19;20134;-79
2022/09/28 10:10:50;;;;;;;4.43;1.20;;;13.40;99.90;;;;;;7399579;19;20457;-78
2022/09/28 10:13:16;;;;;;;5.83;2.67;;;13.40;99.90;;;;;;7401455;19;20463;-80
2022/09/28 10:15:44;;;;;;;2.87;1.43;;;13.70;99.90;;;;;;7398504;19;20145;-80
2022/09/28 10:18:12;;;;;;;3.00;1.20;;;13.70;99.90;;;;;;7397667;19;20134;-80
2022/09/28 10:20:41;;;;;;;3.43;1.30;;;13.90;99.90;;;;;;7396726;19;20137;-79
2022/09/28 10:23:29;;;;;;;3.63;1.30;;;13.90;99.90;;;;;;7399067;19;20134;-79
2022/09/28 10:26:04;;;;;;;4.10;1.57;;;14.00;99.90;;;;;;7397900;19;20198;-78
2022/09/28 10:28:46;;;;;;;3.00;1.10;;;14.00;99.90;;;;;;7395808;19;20142;-79
2022/09/28 10:31:34;;;;;;;3.07;1.50;;;14.00;99.90;;;;;;7396908;19;20149;-80
2022/09/28 10:34:00;;;;;;;3.60;1.70;;;14.00;99.90;;;;;;7396787;19;20170;-80
2022/09/28 10:36:27;;;;;;;3.67;1.35;;;14.10;99.90;;;;;;7395944;19;20138;-79
2022/09/28 10:38:54;;;;;;;2.03;1.40;;;14.00;99.90;;;;;;7395291;19;20568;-80
2022/09/28 10:41:21;;;;;;;3.05;1.38;;;13.90;99.90;;;;;;7397148;19;20139;-80
2022/09/28 10:44:04;;;;;;;3.55;1.58;;;13.90;99.90;;;;;;7404183;19;20576;-80
2022/09/28 10:46:33;;;;;;;2.63;1.08;;;14.00;99.90;;;;;;7400609;19;20165;-80
2022/09/28 10:49:01;;;;;;;4.25;1.20;;;13.70;99.90;;;;;;7396775;19;20151;-79
2022/09/28 10:51:41;;;;;;;2.47;1.42;;;13.80;99.90;;;;;;7397135;19;20222;-80
2022/09/28 10:54:17;;;;;;;3.17;1.37;;;13.90;99.90;;;;;;7399481;19;20140;-80
2022/09/28 10:56:44;;;;;;;2.20;1.30;;;13.70;99.90;;;;;;7397750;19;20130;-80
2022/09/28 10:59:30;;;;;;;3.75;1.10;;;13.90;99.90;;;;;;7396369;19;20130;-79
2022/09/28 11:02:11;;;;;;;3.90;1.63;;;14.00;99.90;;;;;;7396402;19;20642;-79
2022/09/28 11:04:42;;;;;;;3.97;1.25;;;14.00;99.90;;;;;;7397627;19;20141;-80
2022/09/28 11:07:18;;;;;;;1.20;0.80;;;14.40;99.90;;;;;;7397738;19;20202;-80
2022/09/28 11:09:47;;;;;;;1.58;1.05;;;14.20;99.90;;;;;;7402912;19;20138;-79
2022/09/28 11:12:20;;;;;;;3.45;1.05;;;14.00;99.90;;;;;;7397722;19;20130;-78
2022/09/28 11:14:51;;;;;;;4.50;1.10;;;13.90;99.90;;;;;;7395069;19;20556;-80
2022/09/28 11:17:37;;;;;;;2.60;1.25;;;14.20;99.90;;;;;;7395006;19;20180;-80
2022/09/28 11:20:25;;;;;;;1.57;0.90;;;14.30;99.90;;;;;;7396837;19;20143;-79
2022/09/28 11:22:56;;;;;;;5.87;1.20;;;14.30;99.90;;;;;;7396120;19;20774;-78
2022/09/28 11:25:27;;;;;;;2.87;0.97;;;14.40;99.90;;;;;;7395507;19;20472;-79
2022/09/28 11:27:53;;;;;;;3.72;1.20;;;14.40;99.90;;;;;;7396179;19;20606;-79
2022/09/28 11:30:23;;;;;;;3.53;1.20;;;14.20;99.90;;;;;;7394458;19;20221;-78
2022/09/28 11:32:52;;;;;;;3.20;1.23;;;14.40;99.90;;;;;;7395303;19;20134;-79
2022/09/28 11:35:22;;;;;;;2.90;1.02;;;14.30;99.90;;;;;;7394640;19;20143;-79
2022/09/28 11:37:52;;;;;;;2.90;1.10;;;14.20;99.90;;;;;;7393556;19;20152;-79
2022/09/28 11:40:41;;;;;;;2.88;1.10;;;14.50;99.90;;;;;;7395536;19;20495;-79
2022/09/28 11:43:45;;;;;;;4.40;0.98;;;14.40;99.90;;;;;;7391084;19;20166;-80
2022/09/28 11:46:37;;;;;;;3.25;0.90;;;14.50;99.90;;;;;;7397044;19;20134;-78
2022/09/28 11:49:24;;;;;;;2.83;1.20;;;14.50;99.90;;;;;;7393772;19;20178;-79
2022/09/28 11:51:53;;;;;;;2.40;1.10;;;14.50;99.90;;;;;;7396040;19;20146;-78
2022/09/28 11:54:52;;;;;;;2.78;1.33;;;14.50;99.90;;;;;;7394470;19;20242;-79
2022/09/28 11:57:22;;;;;;;3.30;1.15;;;14.50;99.90;;;;;;7388520;19;20157;-78
2022/09/28 11:59:58;;;;;;;2.63;1.02;;;14.50;99.90;;;;;;7397986;19;20142;-83
2022/09/28 12:02:49;;;;;;;2.13;0.90;;;14.60;99.90;;;;;;7402859;19;20161;-78
2022/09/28 12:05:21;;;;;;;3.90;1.23;;;14.60;99.90;;;;;;7398796;19;20150;-80
2022/09/28 12:08:13;;;;;;;2.45;0.90;;;14.70;99.90;;;;;;7394266;19;20131;-78
2022/09/28 12:10:54;;;;;;;2.10;0.90;;;14.90;99.90;;;;;;7393807;19;20145;-78
2022/09/28 12:13:34;;;;;;;2.13;0.90;;;15.00;99.90;;;;;;7393762;19;20145;-80
2022/09/28 12:16:05;;;;;;;2.30;1.25;;;15.00;99.90;;;;;;7393006;19;20630;-78
2022/09/28 12:18:45;;;;;;;1.70;0.87;;;15.10;99.90;;;;;;7392282;19;20190;-78
2022/09/28 12:21:29;;;;;;;3.08;0.77;;;15.00;99.90;;;;;;7393689;19;20230;-79
2022/09/28 12:24:02;;;;;;;2.50;0.80;;;14.90;99.90;;;;;;7394522;19;20150;-78
2022/09/28 12:26:28;;;;;;;5.30;1.15;;;14.90;99.90;;;;;;7392920;19;20177;-79
2022/09/28 12:28:59;;;;;;;2.20;0.85;;;15.00;99.90;;;;;;7391457;19;20147;-79
2022/09/28 12:31:38;;;;;;;2.45;1.38;;;15.10;99.90;;;;;;7393193;19;20134;-79
2022/09/28 12:34:04;;;;;;;2.67;1.20;;;14.90;99.90;;;;;;7392858;19;20154;-79
2022/09/28 12:36:59;;;;;;;2.30;1.02;;;15.00;99.90;;;;;;7394250;19;20138;-78
2022/09/28 12:39:50;;;;;;;1.52;0.80;;;15.00;99.90;;;;;;7390683;19;20146;-79
2022/09/28 12:42:27;;;;;;;3.33;1.02;;;15.00;99.90;;;;;;7390989;19;20142;-79
2022/09/28 12:45:12;;;;;;;0.98;0.60;;;15.20;99.90;;;;;;7391664;19;20149;-78
2022/09/28 12:48:00;;;;;;;2.70;0.88;;;15.00;99.90;;;;;;7393972;19;20224;-78
2022/09/28 12:50:36;;;;;;;2.28;0.70;;;15.20;99.90;;;;;;7394454;19;20246;-78
2022/09/28 12:53:18;;;;;;;1.67;0.63;;;15.20;99.90;;;;;;7391846;19;20151;-79
2022/09/28 12:56:18;;;;;;;2.15;0.82;;;15.20;99.90;;;;;;7392463;19;20146;-78
2022/09/28 12:59:03;;;;;;;1.55;0.80;;;15.20;99.90;;;;;;7392164;19;20165;-83
2022/09/28 13:02:09;;;;;;;1.35;0.68;;;15.10;99.90;;;;;;7390983;19;20138;-79
2022/09/28 13:04:44;;;;;;;2.40;0.90;;;14.90;99.90;;;;;;7390472;19;20675;-78
2022/09/28 13:07:30;;;;;;;1.10;0.70;;;15.00;99.90;;;;;;7391713;19;20137;-79
2022/09/28 13:10:13;;;;;;;1.65;0.73;;;15.10;99.90;;;;;;7391179;19;20142;-79
2022/09/28 13:12:55;;;;;;;1.60;0.60;;;15.00;99.90;;;;;;7389917;19;20150;-79
2022/09/28 13:15:26;;;;;;;1.08;0.80;;;15.10;99.90;;;;;;7391276;19;20158;-79
2022/09/28 13:18:00;;;;;;;3.30;0.70;;;15.20;99.90;;;;;;7391261;19;20142;-79
2022/09/28 13:20:51;;;;;;;1.60;0.70;;;15.10;99.90;;;;;;7390032;19;20151;-78
2022/09/28 13:23:22;;;;;;;1.00;0.60;;;14.90;99.90;;;;;;7391355;19;20139;-79
2022/09/28 13:26:09;;;;;;;0.60;0.50;;;14.80;99.90;;;;;;7390542;19;20503;-79